sensor_id;sensor_type;location;lat;lon;timestamp;P1;durP1;ratioP1;P2;durP2;ratioP2
49972;SDS011;65693;49.798;10.968;2023-05-20T00:00:55;4.13;;;2.88;;
49972;SDS011;65693;49.798;10.968;2023-05-20T00:03:22;3.97;;;2.40;;
49972;SDS011;65693;49.798;10.968;2023-05-20T00:05:48;3.70;;;2.60;;
49972;SDS011;65693;49.798;10.968;2023-05-20T00:08:16;3.20;;;2.22;;
49972;SDS011;65693;49.798;10.968;2023-05-20T00:10:43;3.25;;;2.53;;
49972;SDS011;65693;49.798;10.968;2023-05-20T00:13:10;3.63;;;2.58;;
49972;SDS011;65693;49.798;10.968;2023-05-20T00:15:38;3.55;;;2.60;;
49972;SDS011;65693;49.798;10.968;2023-05-20T00:18:04;3.38;;;2.50;;
49972;SDS011;65693;49.798;10.968;2023-05-20T00:20:31;4.15;;;2.85;;
49972;SDS011;65693;49.798;10.968;2023-05-20T00:22:57;4.40;;;2.67;;
49972;SDS011;65693;49.798;10.968;2023-05-20T00:25:24;4.05;;;2.67;;
49972;SDS011;65693;49.798;10.968;2023-05-20T00:27:50;3.35;;;2.40;;
49972;SDS011;65693;49.798;10.968;2023-05-20T00:30:17;3.88;;;2.70;;
49972;SDS011;65693;49.798;10.968;2023-05-20T00:32:45;3.83;;;2.50;;
49972;SDS011;65693;49.798;10.968;2023-05-20T00:35:11;3.97;;;2.58;;
49972;SDS011;65693;49.798;10.968;2023-05-20T00:37:38;4.05;;;2.78;;
49972;SDS011;65693;49.798;10.968;2023-05-20T00:40:05;3.55;;;2.50;;
49972;SDS011;65693;49.798;10.968;2023-05-20T00:42:32;3.92;;;2.80;;
49972;SDS011;65693;49.798;10.968;2023-05-20T00:44:58;4.07;;;2.67;;
49972;SDS011;65693;49.798;10.968;2023-05-20T00:47:26;3.72;;;2.70;;
49972;SDS011;65693;49.798;10.968;2023-05-20T00:49:55;4.20;;;2.80;;
49972;SDS011;65693;49.798;10.968;2023-05-20T00:52:22;4.35;;;2.90;;
49972;SDS011;65693;49.798;10.968;2023-05-20T00:54:49;3.90;;;2.70;;
49972;SDS011;65693;49.798;10.968;2023-05-20T00:57:17;4.05;;;2.80;;
49972;SDS011;65693;49.798;10.968;2023-05-20T00:59:44;3.65;;;2.67;;
49972;SDS011;65693;49.798;10.968;2023-05-20T01:02:11;3.53;;;2.58;;
49972;SDS011;65693;49.798;10.968;2023-05-20T01:04:38;3.80;;;2.60;;
49972;SDS011;65693;49.798;10.968;2023-05-20T01:07:07;3.55;;;2.60;;
49972;SDS011;65693;49.798;10.968;2023-05-20T01:09:33;3.97;;;2.80;;
49972;SDS011;65693;49.798;10.968;2023-05-20T01:12:02;4.13;;;2.65;;
49972;SDS011;65693;49.798;10.968;2023-05-20T01:14:34;3.92;;;2.60;;
49972;SDS011;65693;49.798;10.968;2023-05-20T01:17:05;4.25;;;3.17;;
49972;SDS011;65693;49.798;10.968;2023-05-20T01:19:37;3.92;;;2.80;;
49972;SDS011;65693;49.798;10.968;2023-05-20T01:22:07;4.75;;;3.00;;
49972;SDS011;65693;49.798;10.968;2023-05-20T01:24:37;3.53;;;2.65;;
49972;SDS011;65693;49.798;10.968;2023-05-20T01:27:05;4.20;;;2.75;;
49972;SDS011;65693;49.798;10.968;2023-05-20T01:29:34;4.15;;;3.30;;
49972;SDS011;65693;49.798;10.968;2023-05-20T01:32:00;4.13;;;2.90;;
49972;SDS011;65693;49.798;10.968;2023-05-20T01:34:31;3.95;;;2.80;;
49972;SDS011;65693;49.798;10.968;2023-05-20T01:36:59;4.28;;;3.30;;
49972;SDS011;65693;49.798;10.968;2023-05-20T01:39:26;4.45;;;2.60;;
49972;SDS011;65693;49.798;10.968;2023-05-20T01:41:56;4.35;;;3.30;;
49972;SDS011;65693;49.798;10.968;2023-05-20T01:44:23;4.63;;;3.17;;
49972;SDS011;65693;49.798;10.968;2023-05-20T01:46:49;3.35;;;2.40;;
49972;SDS011;65693;49.798;10.968;2023-05-20T01:49:16;5.03;;;2.90;;
49972;SDS011;65693;49.798;10.968;2023-05-20T01:51:42;4.07;;;3.10;;
49972;SDS011;65693;49.798;10.968;2023-05-20T01:54:09;4.07;;;3.05;;
49972;SDS011;65693;49.798;10.968;2023-05-20T01:56:35;3.70;;;2.70;;
49972;SDS011;65693;49.798;10.968;2023-05-20T01:59:03;3.63;;;2.63;;
49972;SDS011;65693;49.798;10.968;2023-05-20T02:01:29;4.20;;;3.03;;
49972;SDS011;65693;49.798;10.968;2023-05-20T02:03:55;4.05;;;2.80;;
49972;SDS011;65693;49.798;10.968;2023-05-20T02:06:22;4.07;;;2.90;;
49972;SDS011;65693;49.798;10.968;2023-05-20T02:08:48;4.10;;;3.13;;
49972;SDS011;65693;49.798;10.968;2023-05-20T02:11:15;4.80;;;3.03;;
49972;SDS011;65693;49.798;10.968;2023-05-20T02:13:41;3.90;;;2.92;;
49972;SDS011;65693;49.798;10.968;2023-05-20T02:16:09;4.50;;;3.08;;
49972;SDS011;65693;49.798;10.968;2023-05-20T02:18:35;4.00;;;2.90;;
49972;SDS011;65693;49.798;10.968;2023-05-20T02:21:02;3.90;;;3.05;;
49972;SDS011;65693;49.798;10.968;2023-05-20T02:23:29;4.30;;;3.17;;
49972;SDS011;65693;49.798;10.968;2023-05-20T02:25:55;3.92;;;2.78;;
49972;SDS011;65693;49.798;10.968;2023-05-20T02:28:22;3.97;;;2.92;;
49972;SDS011;65693;49.798;10.968;2023-05-20T02:30:49;3.67;;;2.85;;
49972;SDS011;65693;49.798;10.968;2023-05-20T02:33:17;4.38;;;3.17;;
49972;SDS011;65693;49.798;10.968;2023-05-20T02:35:44;4.07;;;2.80;;
49972;SDS011;65693;49.798;10.968;2023-05-20T02:38:10;4.22;;;3.00;;
49972;SDS011;65693;49.798;10.968;2023-05-20T02:40:37;4.00;;;2.92;;
49972;SDS011;65693;49.798;10.968;2023-05-20T02:43:04;4.45;;;3.05;;
49972;SDS011;65693;49.798;10.968;2023-05-20T02:45:31;5.10;;;3.55;;
49972;SDS011;65693;49.798;10.968;2023-05-20T02:47:57;5.15;;;3.28;;
49972;SDS011;65693;49.798;10.968;2023-05-20T02:50:25;4.93;;;3.33;;
49972;SDS011;65693;49.798;10.968;2023-05-20T02:52:51;3.92;;;2.95;;
49972;SDS011;65693;49.798;10.968;2023-05-20T02:55:17;3.85;;;3.00;;
49972;SDS011;65693;49.798;10.968;2023-05-20T02:57:44;3.85;;;2.65;;
49972;SDS011;65693;49.798;10.968;2023-05-20T03:00:10;4.68;;;3.40;;
49972;SDS011;65693;49.798;10.968;2023-05-20T03:02:38;4.45;;;2.88;;
49972;SDS011;65693;49.798;10.968;2023-05-20T03:05:05;4.30;;;3.17;;
49972;SDS011;65693;49.798;10.968;2023-05-20T03:07:33;4.72;;;3.40;;
49972;SDS011;65693;49.798;10.968;2023-05-20T03:10:01;4.68;;;3.30;;
49972;SDS011;65693;49.798;10.968;2023-05-20T03:12:29;4.22;;;3.08;;
49972;SDS011;65693;49.798;10.968;2023-05-20T03:14:56;3.88;;;2.85;;
49972;SDS011;65693;49.798;10.968;2023-05-20T03:17:24;4.20;;;3.20;;
49972;SDS011;65693;49.798;10.968;2023-05-20T03:19:50;3.95;;;3.03;;
49972;SDS011;65693;49.798;10.968;2023-05-20T03:22:17;4.78;;;3.30;;
49972;SDS011;65693;49.798;10.968;2023-05-20T03:24:44;3.90;;;3.15;;
49972;SDS011;65693;49.798;10.968;2023-05-20T03:27:12;4.20;;;3.17;;
49972;SDS011;65693;49.798;10.968;2023-05-20T03:29:38;4.38;;;3.28;;
49972;SDS011;65693;49.798;10.968;2023-05-20T03:32:05;4.70;;;3.30;;
49972;SDS011;65693;49.798;10.968;2023-05-20T03:34:32;4.75;;;3.15;;
49972;SDS011;65693;49.798;10.968;2023-05-20T03:36:58;4.45;;;2.97;;
49972;SDS011;65693;49.798;10.968;2023-05-20T03:39:25;6.93;;;3.58;;
49972;SDS011;65693;49.798;10.968;2023-05-20T03:41:52;4.15;;;3.00;;
49972;SDS011;65693;49.798;10.968;2023-05-20T03:44:19;4.07;;;3.00;;
49972;SDS011;65693;49.798;10.968;2023-05-20T03:46:45;4.75;;;2.85;;
49972;SDS011;65693;49.798;10.968;2023-05-20T03:49:12;5.07;;;3.58;;
49972;SDS011;65693;49.798;10.968;2023-05-20T03:51:38;4.65;;;3.53;;
49972;SDS011;65693;49.798;10.968;2023-05-20T03:54:05;5.18;;;3.45;;
49972;SDS011;65693;49.798;10.968;2023-05-20T03:56:31;4.22;;;3.30;;
49972;SDS011;65693;49.798;10.968;2023-05-20T03:58:59;4.90;;;3.38;;
49972;SDS011;65693;49.798;10.968;2023-05-20T04:01:26;4.20;;;3.13;;
49972;SDS011;65693;49.798;10.968;2023-05-20T04:03:52;4.63;;;3.35;;
49972;SDS011;65693;49.798;10.968;2023-05-20T04:06:19;3.88;;;3.20;;
49972;SDS011;65693;49.798;10.968;2023-05-20T04:08:46;4.57;;;3.28;;
49972;SDS011;65693;49.798;10.968;2023-05-20T04:11:12;5.03;;;3.63;;
49972;SDS011;65693;49.798;10.968;2023-05-20T04:13:39;4.40;;;3.35;;
49972;SDS011;65693;49.798;10.968;2023-05-20T04:16:07;4.60;;;3.40;;
49972;SDS011;65693;49.798;10.968;2023-05-20T04:18:33;4.90;;;3.65;;
49972;SDS011;65693;49.798;10.968;2023-05-20T04:21:03;4.45;;;3.50;;
49972;SDS011;65693;49.798;10.968;2023-05-20T04:23:29;4.43;;;3.55;;
49972;SDS011;65693;49.798;10.968;2023-05-20T04:25:55;5.00;;;3.47;;
49972;SDS011;65693;49.798;10.968;2023-05-20T04:28:26;7.05;;;4.10;;
49972;SDS011;65693;49.798;10.968;2023-05-20T04:30:57;4.55;;;3.30;;
49972;SDS011;65693;49.798;10.968;2023-05-20T04:33:25;5.40;;;3.97;;
49972;SDS011;65693;49.798;10.968;2023-05-20T04:35:51;4.47;;;3.53;;
49972;SDS011;65693;49.798;10.968;2023-05-20T04:38:22;4.95;;;3.70;;
49972;SDS011;65693;49.798;10.968;2023-05-20T04:40:53;4.93;;;3.80;;
49972;SDS011;65693;49.798;10.968;2023-05-20T04:43:22;4.80;;;4.03;;
49972;SDS011;65693;49.798;10.968;2023-05-20T04:45:48;5.30;;;4.13;;
49972;SDS011;65693;49.798;10.968;2023-05-20T04:48:15;4.65;;;3.60;;
49972;SDS011;65693;49.798;10.968;2023-05-20T04:50:43;5.03;;;3.70;;
49972;SDS011;65693;49.798;10.968;2023-05-20T04:53:09;5.38;;;3.40;;
49972;SDS011;65693;49.798;10.968;2023-05-20T04:55:36;4.70;;;3.80;;
49972;SDS011;65693;49.798;10.968;2023-05-20T04:58:03;5.32;;;3.65;;
49972;SDS011;65693;49.798;10.968;2023-05-20T05:00:29;5.50;;;3.83;;
49972;SDS011;65693;49.798;10.968;2023-05-20T05:02:56;4.68;;;3.72;;
49972;SDS011;65693;49.798;10.968;2023-05-20T05:05:22;7.18;;;4.10;;
49972;SDS011;65693;49.798;10.968;2023-05-20T05:07:50;4.57;;;3.70;;
49972;SDS011;65693;49.798;10.968;2023-05-20T05:10:16;4.82;;;3.78;;
49972;SDS011;65693;49.798;10.968;2023-05-20T05:12:43;4.72;;;3.72;;
49972;SDS011;65693;49.798;10.968;2023-05-20T05:15:09;5.22;;;3.63;;
49972;SDS011;65693;49.798;10.968;2023-05-20T05:17:36;5.00;;;3.45;;
49972;SDS011;65693;49.798;10.968;2023-05-20T05:20:02;4.80;;;3.67;;
49972;SDS011;65693;49.798;10.968;2023-05-20T05:22:29;5.30;;;4.30;;
49972;SDS011;65693;49.798;10.968;2023-05-20T05:24:57;5.07;;;4.07;;
49972;SDS011;65693;49.798;10.968;2023-05-20T05:27:24;5.18;;;4.15;;
49972;SDS011;65693;49.798;10.968;2023-05-20T05:29:50;5.18;;;3.85;;
49972;SDS011;65693;49.798;10.968;2023-05-20T05:32:16;6.63;;;4.55;;
49972;SDS011;65693;49.798;10.968;2023-05-20T05:34:43;6.00;;;4.38;;
49972;SDS011;65693;49.798;10.968;2023-05-20T05:37:09;4.72;;;3.97;;
49972;SDS011;65693;49.798;10.968;2023-05-20T05:39:36;4.95;;;4.18;;
49972;SDS011;65693;49.798;10.968;2023-05-20T05:42:04;6.60;;;4.75;;
49972;SDS011;65693;49.798;10.968;2023-05-20T05:44:30;6.68;;;5.18;;
49972;SDS011;65693;49.798;10.968;2023-05-20T05:46:57;9.77;;;5.28;;
49972;SDS011;65693;49.798;10.968;2023-05-20T05:49:24;8.90;;;5.32;;
49972;SDS011;65693;49.798;10.968;2023-05-20T05:51:50;9.18;;;5.43;;
49972;SDS011;65693;49.798;10.968;2023-05-20T05:54:16;7.57;;;4.93;;
49972;SDS011;65693;49.798;10.968;2023-05-20T05:56:44;7.60;;;5.18;;
49972;SDS011;65693;49.798;10.968;2023-05-20T05:59:12;6.47;;;5.00;;
49972;SDS011;65693;49.798;10.968;2023-05-20T06:01:38;6.93;;;4.70;;
49972;SDS011;65693;49.798;10.968;2023-05-20T06:04:05;6.85;;;4.80;;
49972;SDS011;65693;49.798;10.968;2023-05-20T06:06:31;6.75;;;4.70;;
49972;SDS011;65693;49.798;10.968;2023-05-20T06:08:58;8.27;;;5.43;;
49972;SDS011;65693;49.798;10.968;2023-05-20T06:11:24;7.18;;;5.20;;
49972;SDS011;65693;49.798;10.968;2023-05-20T06:13:51;7.43;;;4.60;;
49972;SDS011;65693;49.798;10.968;2023-05-20T06:16:19;7.38;;;4.85;;
49972;SDS011;65693;49.798;10.968;2023-05-20T06:18:45;6.90;;;4.95;;
49972;SDS011;65693;49.798;10.968;2023-05-20T06:21:14;8.25;;;5.38;;
49972;SDS011;65693;49.798;10.968;2023-05-20T06:23:40;5.90;;;4.72;;
49972;SDS011;65693;49.798;10.968;2023-05-20T06:26:07;7.60;;;4.90;;
49972;SDS011;65693;49.798;10.968;2023-05-20T06:28:33;7.25;;;4.93;;
49972;SDS011;65693;49.798;10.968;2023-05-20T06:30:59;6.65;;;4.50;;
49972;SDS011;65693;49.798;10.968;2023-05-20T06:33:27;6.90;;;4.68;;
49972;SDS011;65693;49.798;10.968;2023-05-20T06:35:55;5.93;;;4.72;;
49972;SDS011;65693;49.798;10.968;2023-05-20T06:38:23;6.70;;;5.07;;
49972;SDS011;65693;49.798;10.968;2023-05-20T06:40:49;5.93;;;4.95;;
49972;SDS011;65693;49.798;10.968;2023-05-20T06:43:16;7.95;;;4.82;;
49972;SDS011;65693;49.798;10.968;2023-05-20T06:45:43;6.63;;;5.07;;
49972;SDS011;65693;49.798;10.968;2023-05-20T06:48:09;8.20;;;5.05;;
49972;SDS011;65693;49.798;10.968;2023-05-20T06:50:37;6.28;;;5.18;;
49972;SDS011;65693;49.798;10.968;2023-05-20T06:53:04;7.07;;;5.00;;
49972;SDS011;65693;49.798;10.968;2023-05-20T06:55:30;9.80;;;5.38;;
49972;SDS011;65693;49.798;10.968;2023-05-20T06:57:57;8.32;;;5.30;;
49972;SDS011;65693;49.798;10.968;2023-05-20T07:00:23;6.25;;;5.35;;
49972;SDS011;65693;49.798;10.968;2023-05-20T07:02:49;8.70;;;5.57;;
49972;SDS011;65693;49.798;10.968;2023-05-20T07:05:16;7.00;;;5.38;;
49972;SDS011;65693;49.798;10.968;2023-05-20T07:07:44;7.07;;;5.43;;
49972;SDS011;65693;49.798;10.968;2023-05-20T07:10:10;6.35;;;5.30;;
49972;SDS011;65693;49.798;10.968;2023-05-20T07:12:36;6.95;;;5.57;;
49972;SDS011;65693;49.798;10.968;2023-05-20T07:15:03;6.90;;;5.65;;
49972;SDS011;65693;49.798;10.968;2023-05-20T07:17:30;9.73;;;5.47;;
49972;SDS011;65693;49.798;10.968;2023-05-20T07:19:56;7.68;;;5.72;;
49972;SDS011;65693;49.798;10.968;2023-05-20T07:22:23;6.50;;;5.60;;
49972;SDS011;65693;49.798;10.968;2023-05-20T07:24:51;8.23;;;5.07;;
49972;SDS011;65693;49.798;10.968;2023-05-20T07:27:17;7.30;;;5.78;;
49972;SDS011;65693;49.798;10.968;2023-05-20T07:29:43;6.35;;;5.70;;
49972;SDS011;65693;49.798;10.968;2023-05-20T07:32:10;6.95;;;5.88;;
49972;SDS011;65693;49.798;10.968;2023-05-20T07:34:36;6.95;;;5.47;;
49972;SDS011;65693;49.798;10.968;2023-05-20T07:37:03;8.15;;;5.82;;
49972;SDS011;65693;49.798;10.968;2023-05-20T07:39:30;6.95;;;6.03;;
49972;SDS011;65693;49.798;10.968;2023-05-20T07:41:58;6.97;;;5.80;;
49972;SDS011;65693;49.798;10.968;2023-05-20T07:44:25;6.15;;;5.20;;
49972;SDS011;65693;49.798;10.968;2023-05-20T07:46:53;7.70;;;6.07;;
49972;SDS011;65693;49.798;10.968;2023-05-20T07:49:20;7.93;;;6.85;;
49972;SDS011;65693;49.798;10.968;2023-05-20T07:51:47;7.15;;;6.13;;
49972;SDS011;65693;49.798;10.968;2023-05-20T07:54:14;8.45;;;6.97;;
49972;SDS011;65693;49.798;10.968;2023-05-20T07:56:40;9.90;;;7.47;;
49972;SDS011;65693;49.798;10.968;2023-05-20T07:59:08;8.40;;;6.90;;
49972;SDS011;65693;49.798;10.968;2023-05-20T08:01:34;8.68;;;7.20;;
49972;SDS011;65693;49.798;10.968;2023-05-20T08:04:01;11.00;;;7.03;;
49972;SDS011;65693;49.798;10.968;2023-05-20T08:06:27;8.65;;;6.60;;
49972;SDS011;65693;49.798;10.968;2023-05-20T08:08:54;8.35;;;6.88;;
49972;SDS011;65693;49.798;10.968;2023-05-20T08:11:20;10.98;;;6.93;;
49972;SDS011;65693;49.798;10.968;2023-05-20T08:13:47;9.00;;;7.25;;
49972;SDS011;65693;49.798;10.968;2023-05-20T08:16:15;8.57;;;6.93;;
49972;SDS011;65693;49.798;10.968;2023-05-20T08:18:41;7.78;;;6.60;;
49972;SDS011;65693;49.798;10.968;2023-05-20T08:21:08;9.52;;;6.65;;
49972;SDS011;65693;49.798;10.968;2023-05-20T08:23:34;7.70;;;6.40;;
49972;SDS011;65693;49.798;10.968;2023-05-20T08:26:01;8.82;;;6.93;;
49972;SDS011;65693;49.798;10.968;2023-05-20T08:28:28;11.52;;;6.88;;
49972;SDS011;65693;49.798;10.968;2023-05-20T08:30:55;8.15;;;6.78;;
49972;SDS011;65693;49.798;10.968;2023-05-20T08:33:23;8.70;;;6.90;;
49972;SDS011;65693;49.798;10.968;2023-05-20T08:35:49;8.20;;;7.03;;
49972;SDS011;65693;49.798;10.968;2023-05-20T08:38:16;7.90;;;6.90;;
49972;SDS011;65693;49.798;10.968;2023-05-20T08:40:42;10.60;;;7.47;;
49972;SDS011;65693;49.798;10.968;2023-05-20T08:43:08;8.55;;;7.35;;
49972;SDS011;65693;49.798;10.968;2023-05-20T08:45:36;8.25;;;7.22;;
49972;SDS011;65693;49.798;10.968;2023-05-20T08:48:03;10.52;;;7.50;;
49972;SDS011;65693;49.798;10.968;2023-05-20T08:50:31;9.90;;;6.93;;
49972;SDS011;65693;49.798;10.968;2023-05-20T08:52:58;8.88;;;7.13;;
49972;SDS011;65693;49.798;10.968;2023-05-20T08:55:25;8.18;;;6.85;;
49972;SDS011;65693;49.798;10.968;2023-05-20T08:57:59;8.85;;;6.75;;
49972;SDS011;65693;49.798;10.968;2023-05-20T09:00:25;8.82;;;7.35;;
49972;SDS011;65693;49.798;10.968;2023-05-20T09:02:52;8.30;;;7.05;;
49972;SDS011;65693;49.798;10.968;2023-05-20T09:05:19;7.38;;;6.60;;
49972;SDS011;65693;49.798;10.968;2023-05-20T09:07:48;8.70;;;7.55;;
49972;SDS011;65693;49.798;10.968;2023-05-20T09:10:15;8.20;;;7.03;;
49972;SDS011;65693;49.798;10.968;2023-05-20T09:12:41;9.55;;;7.38;;
49972;SDS011;65693;49.798;10.968;2023-05-20T09:15:08;8.88;;;7.00;;
49972;SDS011;65693;49.798;10.968;2023-05-20T09:17:35;8.45;;;7.03;;
49972;SDS011;65693;49.798;10.968;2023-05-20T09:20:04;8.93;;;7.55;;
49972;SDS011;65693;49.798;10.968;2023-05-20T09:22:32;9.25;;;6.68;;
49972;SDS011;65693;49.798;10.968;2023-05-20T09:25:00;9.13;;;7.50;;
49972;SDS011;65693;49.798;10.968;2023-05-20T09:27:27;8.70;;;7.00;;
49972;SDS011;65693;49.798;10.968;2023-05-20T09:29:53;9.85;;;7.53;;
49972;SDS011;65693;49.798;10.968;2023-05-20T09:32:20;9.57;;;7.53;;
49972;SDS011;65693;49.798;10.968;2023-05-20T09:34:48;8.50;;;7.15;;
49972;SDS011;65693;49.798;10.968;2023-05-20T09:37:16;9.40;;;7.18;;
49972;SDS011;65693;49.798;10.968;2023-05-20T09:39:45;7.82;;;6.93;;
49972;SDS011;65693;49.798;10.968;2023-05-20T09:42:25;9.00;;;7.55;;
49972;SDS011;65693;49.798;10.968;2023-05-20T09:44:54;8.68;;;7.30;;
49972;SDS011;65693;49.798;10.968;2023-05-20T09:47:22;9.05;;;7.45;;
49972;SDS011;65693;49.798;10.968;2023-05-20T09:49:49;10.05;;;7.25;;
49972;SDS011;65693;49.798;10.968;2023-05-20T09:52:17;9.75;;;7.05;;
49972;SDS011;65693;49.798;10.968;2023-05-20T09:54:44;9.57;;;7.57;;
49972;SDS011;65693;49.798;10.968;2023-05-20T09:57:12;8.75;;;7.60;;
49972;SDS011;65693;49.798;10.968;2023-05-20T09:59:40;8.55;;;7.57;;
49972;SDS011;65693;49.798;10.968;2023-05-20T10:02:07;8.75;;;7.85;;
49972;SDS011;65693;49.798;10.968;2023-05-20T10:04:33;10.00;;;8.07;;
49972;SDS011;65693;49.798;10.968;2023-05-20T10:07:08;9.57;;;8.15;;
49972;SDS011;65693;49.798;10.968;2023-05-20T10:09:54;10.43;;;7.68;;
49972;SDS011;65693;49.798;10.968;2023-05-20T10:12:30;8.82;;;7.70;;
49972;SDS011;65693;49.798;10.968;2023-05-20T10:15:06;8.65;;;7.60;;
49972;SDS011;65693;49.798;10.968;2023-05-20T10:17:41;8.65;;;7.72;;
49972;SDS011;65693;49.798;10.968;2023-05-20T10:20:13;9.85;;;7.97;;
49972;SDS011;65693;49.798;10.968;2023-05-20T10:22:39;8.70;;;7.20;;
49972;SDS011;65693;49.798;10.968;2023-05-20T10:25:08;10.32;;;8.13;;
49972;SDS011;65693;49.798;10.968;2023-05-20T10:27:43;9.07;;;7.53;;
49972;SDS011;65693;49.798;10.968;2023-05-20T10:30:15;8.57;;;7.10;;
49972;SDS011;65693;49.798;10.968;2023-05-20T10:32:47;10.50;;;8.48;;
49972;SDS011;65693;49.798;10.968;2023-05-20T10:35:19;9.10;;;7.43;;
49972;SDS011;65693;49.798;10.968;2023-05-20T10:37:47;9.32;;;7.68;;
49972;SDS011;65693;49.798;10.968;2023-05-20T10:40:14;9.02;;;7.60;;
49972;SDS011;65693;49.798;10.968;2023-05-20T10:42:44;9.52;;;8.10;;
49972;SDS011;65693;49.798;10.968;2023-05-20T10:45:22;9.25;;;7.70;;
49972;SDS011;65693;49.798;10.968;2023-05-20T10:47:55;8.95;;;7.40;;
49972;SDS011;65693;49.798;10.968;2023-05-20T10:50:25;8.75;;;7.40;;
49972;SDS011;65693;49.798;10.968;2023-05-20T10:52:53;9.90;;;8.35;;
49972;SDS011;65693;49.798;10.968;2023-05-20T10:55:20;8.77;;;7.68;;
49972;SDS011;65693;49.798;10.968;2023-05-20T10:57:47;11.07;;;8.18;;
49972;SDS011;65693;49.798;10.968;2023-05-20T11:00:14;9.68;;;8.00;;
49972;SDS011;65693;49.798;10.968;2023-05-20T11:02:42;9.25;;;7.60;;
49972;SDS011;65693;49.798;10.968;2023-05-20T11:05:10;9.50;;;8.48;;
49972;SDS011;65693;49.798;10.968;2023-05-20T11:07:37;10.23;;;7.63;;
49972;SDS011;65693;49.798;10.968;2023-05-20T11:10:06;8.73;;;7.82;;
49972;SDS011;65693;49.798;10.968;2023-05-20T11:12:33;9.88;;;8.38;;
49972;SDS011;65693;49.798;10.968;2023-05-20T11:15:00;11.15;;;8.43;;
49972;SDS011;65693;49.798;10.968;2023-05-20T11:17:27;8.98;;;7.68;;
49972;SDS011;65693;49.798;10.968;2023-05-20T11:19:54;8.65;;;7.75;;
49972;SDS011;65693;49.798;10.968;2023-05-20T11:22:24;10.88;;;8.77;;
49972;SDS011;65693;49.798;10.968;2023-05-20T11:24:51;10.65;;;8.23;;
49972;SDS011;65693;49.798;10.968;2023-05-20T11:27:17;9.02;;;7.95;;
49972;SDS011;65693;49.798;10.968;2023-05-20T11:29:44;9.88;;;8.27;;
49972;SDS011;65693;49.798;10.968;2023-05-20T11:32:11;9.18;;;8.15;;
49972;SDS011;65693;49.798;10.968;2023-05-20T11:34:38;9.98;;;8.07;;
49972;SDS011;65693;49.798;10.968;2023-05-20T11:37:07;9.63;;;7.55;;
49972;SDS011;65693;49.798;10.968;2023-05-20T11:39:35;9.45;;;8.45;;
49972;SDS011;65693;49.798;10.968;2023-05-20T11:42:02;8.50;;;7.60;;
49972;SDS011;65693;49.798;10.968;2023-05-20T11:44:29;9.20;;;7.85;;
49972;SDS011;65693;49.798;10.968;2023-05-20T11:46:58;10.00;;;8.15;;
49972;SDS011;65693;49.798;10.968;2023-05-20T11:49:25;9.82;;;7.40;;
49972;SDS011;65693;49.798;10.968;2023-05-20T11:51:51;9.27;;;7.60;;
49972;SDS011;65693;49.798;10.968;2023-05-20T11:54:20;10.35;;;8.77;;
49972;SDS011;65693;49.798;10.968;2023-05-20T11:56:47;9.05;;;7.75;;
49972;SDS011;65693;49.798;10.968;2023-05-20T11:59:14;10.10;;;8.68;;
49972;SDS011;65693;49.798;10.968;2023-05-20T12:01:40;9.48;;;7.85;;
49972;SDS011;65693;49.798;10.968;2023-05-20T12:04:07;8.52;;;7.47;;
49972;SDS011;65693;49.798;10.968;2023-05-20T12:06:33;9.85;;;8.18;;
49972;SDS011;65693;49.798;10.968;2023-05-20T12:09:02;10.15;;;7.57;;
49972;SDS011;65693;49.798;10.968;2023-05-20T12:11:32;9.25;;;7.28;;
49972;SDS011;65693;49.798;10.968;2023-05-20T12:13:59;9.40;;;7.85;;
49972;SDS011;65693;49.798;10.968;2023-05-20T12:16:25;9.00;;;7.40;;
49972;SDS011;65693;49.798;10.968;2023-05-20T12:18:52;10.63;;;7.95;;
49972;SDS011;65693;49.798;10.968;2023-05-20T12:21:18;10.98;;;7.35;;
49972;SDS011;65693;49.798;10.968;2023-05-20T12:23:45;10.65;;;7.80;;
49972;SDS011;65693;49.798;10.968;2023-05-20T12:26:11;10.32;;;7.65;;
49972;SDS011;65693;49.798;10.968;2023-05-20T12:28:39;9.48;;;7.43;;
49972;SDS011;65693;49.798;10.968;2023-05-20T12:31:05;9.43;;;7.93;;
49972;SDS011;65693;49.798;10.968;2023-05-20T12:33:32;10.15;;;8.00;;
49972;SDS011;65693;49.798;10.968;2023-05-20T12:35:58;8.65;;;6.57;;
49972;SDS011;65693;49.798;10.968;2023-05-20T12:38:25;9.13;;;6.88;;
49972;SDS011;65693;49.798;10.968;2023-05-20T12:40:52;9.50;;;8.15;;
49972;SDS011;65693;49.798;10.968;2023-05-20T12:43:18;8.82;;;7.65;;
49972;SDS011;65693;49.798;10.968;2023-05-20T12:45:46;9.10;;;7.50;;
49972;SDS011;65693;49.798;10.968;2023-05-20T12:48:12;8.70;;;6.90;;
49972;SDS011;65693;49.798;10.968;2023-05-20T12:50:39;11.10;;;8.05;;
49972;SDS011;65693;49.798;10.968;2023-05-20T12:53:05;8.98;;;7.18;;
49972;SDS011;65693;49.798;10.968;2023-05-20T12:55:31;8.60;;;6.22;;
49972;SDS011;65693;49.798;10.968;2023-05-20T12:57:58;9.18;;;7.05;;
49972;SDS011;65693;49.798;10.968;2023-05-20T13:00:24;9.88;;;7.30;;
49972;SDS011;65693;49.798;10.968;2023-05-20T13:02:52;10.73;;;8.00;;
49972;SDS011;65693;49.798;10.968;2023-05-20T13:05:18;8.55;;;7.43;;
49972;SDS011;65693;49.798;10.968;2023-05-20T13:07:45;12.35;;;7.03;;
49972;SDS011;65693;49.798;10.968;2023-05-20T13:10:12;8.15;;;7.18;;
49972;SDS011;65693;49.798;10.968;2023-05-20T13:12:39;10.05;;;7.32;;
49972;SDS011;65693;49.798;10.968;2023-05-20T13:15:10;10.25;;;6.88;;
49972;SDS011;65693;49.798;10.968;2023-05-20T13:17:36;9.18;;;6.88;;
49972;SDS011;65693;49.798;10.968;2023-05-20T13:20:05;8.30;;;6.90;;
49972;SDS011;65693;49.798;10.968;2023-05-20T13:22:32;9.98;;;7.45;;
49972;SDS011;65693;49.798;10.968;2023-05-20T13:24:58;7.90;;;6.88;;
49972;SDS011;65693;49.798;10.968;2023-05-20T13:27:25;9.05;;;7.18;;
49972;SDS011;65693;49.798;10.968;2023-05-20T13:29:52;10.70;;;6.90;;
49972;SDS011;65693;49.798;10.968;2023-05-20T13:32:18;8.60;;;7.03;;
49972;SDS011;65693;49.798;10.968;2023-05-20T13:34:45;9.48;;;6.90;;
49972;SDS011;65693;49.798;10.968;2023-05-20T13:37:12;10.45;;;7.20;;
49972;SDS011;65693;49.798;10.968;2023-05-20T13:39:39;7.80;;;6.63;;
49972;SDS011;65693;49.798;10.968;2023-05-20T13:42:05;7.80;;;6.75;;
49972;SDS011;65693;49.798;10.968;2023-05-20T13:44:31;8.18;;;6.97;;
49972;SDS011;65693;49.798;10.968;2023-05-20T13:46:58;8.85;;;7.13;;
49972;SDS011;65693;49.798;10.968;2023-05-20T13:49:24;8.77;;;6.75;;
49972;SDS011;65693;49.798;10.968;2023-05-20T13:51:51;8.73;;;6.95;;
49972;SDS011;65693;49.798;10.968;2023-05-20T13:54:18;9.20;;;7.32;;
49972;SDS011;65693;49.798;10.968;2023-05-20T13:56:45;9.55;;;6.78;;
49972;SDS011;65693;49.798;10.968;2023-05-20T13:59:12;8.15;;;6.38;;
49972;SDS011;65693;49.798;10.968;2023-05-20T14:01:38;10.80;;;7.28;;
49972;SDS011;65693;49.798;10.968;2023-05-20T14:04:08;8.70;;;6.85;;
49972;SDS011;65693;49.798;10.968;2023-05-20T14:06:35;9.15;;;6.88;;
49972;SDS011;65693;49.798;10.968;2023-05-20T14:09:01;9.10;;;6.63;;
49972;SDS011;65693;49.798;10.968;2023-05-20T14:11:29;8.70;;;6.68;;
49972;SDS011;65693;49.798;10.968;2023-05-20T14:13:55;9.88;;;7.40;;
49972;SDS011;65693;49.798;10.968;2023-05-20T14:16:22;8.10;;;7.00;;
49972;SDS011;65693;49.798;10.968;2023-05-20T14:18:48;7.40;;;6.60;;
49972;SDS011;65693;49.798;10.968;2023-05-20T14:21:15;9.13;;;7.25;;
49972;SDS011;65693;49.798;10.968;2023-05-20T14:23:41;8.65;;;6.82;;
49972;SDS011;65693;49.798;10.968;2023-05-20T14:26:09;8.60;;;6.75;;
49972;SDS011;65693;49.798;10.968;2023-05-20T14:28:37;11.05;;;7.55;;
49972;SDS011;65693;49.798;10.968;2023-05-20T14:31:03;12.63;;;7.78;;
49972;SDS011;65693;49.798;10.968;2023-05-20T14:33:29;10.20;;;6.82;;